Langkawi, Malaysia
Current Conditions -  °F | °C
As of 12:00 PM on Sunday 23 Nov 2014 (Local Time) from WMKL Reporting Station
Broken Clouds Broken Clouds  
Wind Chill: 86°   Ceiling: 27000
Heat Index: 99°   Visibility: 6mi
Dew Point: 79°   Wind: 3mph
Humidity: 79%   Direction: 240°WSW
Pressure: 29.83"   Gusts: NA
Location:  6.37°N, 99.78°E
Report Text: WMKL 230400Z 24003KT 9999 FEW020 SCT140 BKN270 30/26 Q1010
Loading
Personal Weather Stations






























Interactive Weather Map New forecast layout! Learn more

10-Day Weather Forecast

Advertisements
Track Severe Weather on mobile